Time;durP1;ratioP1;P1;durP2;ratioP2;P2;SDS_P1;SDS_P2;PMS_P1;PMS_P2;Temp;Humidity;BMP_temperature;BMP_pressure;BME280_temperature;BME280_humidity;BME280_pressure;Samples;Min_cycle;Max_cycle;Signal;HPM_P1;HPM_P2
2024/04/04 00:01:53;;;;;;;1.20;0.83;;;;;;;11.89;80.20;95210.25;5060357;28;20658;-81
2024/04/04 00:04:19;;;;;;;3.50;0.90;;;;;;;11.81;80.13;95216.25;5081327;28;20558;-81
2024/04/04 00:06:44;;;;;;;2.50;0.83;;;;;;;11.72;78.88;95217.19;5045716;28;20217;-81
2024/04/04 00:09:09;;;;;;;5.50;0.90;;;;;;;11.80;78.81;95213.81;5078878;28;20214;-81
2024/04/04 00:11:35;;;;;;;1.23;0.70;;;;;;;11.56;78.90;95207.59;5053915;28;20189;-81
2024/04/04 00:14:00;;;;;;;3.47;0.90;;;;;;;11.68;78.54;95210.72;5051687;28;20231;-81
2024/04/04 00:16:25;;;;;;;2.03;0.60;;;;;;;11.55;78.73;95205.16;5060900;28;20185;-81
2024/04/04 00:18:51;;;;;;;1.20;0.70;;;;;;;11.49;78.33;95205.81;5068762;28;20220;-81
2024/04/04 00:21:16;;;;;;;2.83;0.80;;;;;;;11.51;78.12;95204.69;5078126;28;20252;-81
2024/04/04 00:23:41;;;;;;;3.53;1.03;;;;;;;11.53;77.88;95212.31;5069397;28;20612;-81
2024/04/04 00:26:07;;;;;;;2.43;0.80;;;;;;;11.43;78.30;95212.47;5087141;28;20287;-81
2024/04/04 00:28:32;;;;;;;3.00;1.00;;;;;;;11.44;77.67;95208.91;5067414;28;20201;-81
2024/04/04 00:30:58;;;;;;;4.37;0.90;;;;;;;11.29;78.34;95220.88;5067694;28;20267;-81
2024/04/04 00:33:23;;;;;;;3.60;0.77;;;;;;;11.45;77.59;95204.50;5068402;28;20660;-81
2024/04/04 00:35:48;;;;;;;3.70;0.70;;;;;;;11.35;77.74;95215.88;5071200;28;20188;-81
2024/04/04 00:38:14;;;;;;;1.60;0.90;;;;;;;11.35;77.92;95221.06;5072734;28;20687;-80
2024/04/04 00:40:39;;;;;;;3.70;0.80;;;;;;;11.47;77.42;95218.16;5063155;28;20534;-80
2024/04/04 00:43:04;;;;;;;1.23;0.90;;;;;;;11.35;78.09;95208.06;5053263;28;20204;-80
2024/04/04 00:45:31;;;;;;;2.33;0.87;;;;;;;11.30;78.48;95219.91;5061879;28;20245;-80
2024/04/04 00:47:57;;;;;;;1.37;0.70;;;;;;;11.32;77.53;95213.59;5074833;28;20645;-80
2024/04/04 00:50:23;;;;;;;4.67;1.43;;;;;;;11.40;77.26;95212.81;5076195;28;20550;-81
2024/04/04 00:52:48;;;;;;;1.70;0.70;;;;;;;11.37;77.33;95199.28;5066732;28;20190;-79
2024/04/04 00:55:14;;;;;;;1.77;0.70;;;;;;;11.19;77.87;95204.63;5083385;28;20176;-80
2024/04/04 00:57:39;;;;;;;3.83;1.10;;;;;;;11.18;76.96;95200.41;5053837;28;20197;-82
2024/04/04 01:00:06;;;;;;;2.83;0.73;;;;;;;11.26;76.73;95196.03;5054281;28;20240;-81
2024/04/04 01:02:32;;;;;;;1.17;0.60;;;;;;;11.14;76.72;95201.72;5076282;28;20188;-80
2024/04/04 01:04:57;;;;;;;3.00;0.70;;;;;;;11.20;76.18;95199.25;5058116;28;20184;-81
2024/04/04 01:07:23;;;;;;;2.27;0.60;;;;;;;11.20;76.52;95198.44;5079478;28;20184;-81
2024/04/04 01:09:48;;;;;;;1.93;0.60;;;;;;;11.20;76.30;95201.88;5058587;28;20272;-81
2024/04/04 01:12:13;;;;;;;3.57;0.70;;;;;;;11.15;76.89;95201.53;5066886;28;20282;-81
2024/04/04 01:14:39;;;;;;;1.83;0.80;;;;;;;11.28;76.05;95203.66;5070647;28;20185;-81
2024/04/04 01:17:04;;;;;;;2.50;0.90;;;;;;;11.30;76.12;95204.31;5046869;28;20188;-81
2024/04/04 01:19:29;;;;;;;1.97;0.90;;;;;;;11.21;76.18;95207.88;5055158;28;20228;-81
2024/04/04 01:21:54;;;;;;;3.47;0.70;;;;;;;11.42;75.51;95204.84;5087862;28;20193;-81
2024/04/04 01:24:20;;;;;;;1.17;0.70;;;;;;;11.61;74.73;95212.31;5072819;28;20191;-81
2024/04/04 01:26:45;;;;;;;2.17;0.60;;;;;;;11.53;74.78;95204.50;5071634;28;20195;-81
2024/04/04 01:29:10;;;;;;;5.33;1.07;;;;;;;11.51;75.36;95209.88;5077591;28;20210;-81
2024/04/04 01:31:36;;;;;;;3.20;0.67;;;;;;;11.59;74.36;95215.09;5054038;28;20232;-81
2024/04/04 01:34:01;;;;;;;2.03;0.83;;;;;;;11.68;74.33;95215.09;5077249;28;20212;-81
2024/04/04 01:36:26;;;;;;;1.63;0.53;;;;;;;11.67;74.26;95211.69;5073098;28;20256;-81
2024/04/04 01:38:52;;;;;;;1.23;0.53;;;;;;;11.58;74.35;95205.66;5070928;28;20220;-81
2024/04/04 01:41:18;;;;;;;2.67;0.70;;;;;;;11.66;74.17;95210.06;5088630;28;20678;-81
2024/04/04 01:43:44;;;;;;;2.13;1.00;;;;;;;11.71;73.98;95207.78;5049441;28;20223;-81
2024/04/04 01:46:10;;;;;;;1.83;0.70;;;;;;;11.54;74.46;95206.94;5071213;28;20175;-81
2024/04/04 01:48:35;;;;;;;1.10;0.53;;;;;;;11.76;73.26;95212.50;5054358;28;20258;-81
2024/04/04 01:51:00;;;;;;;3.10;0.80;;;;;;;11.51;74.17;95204.69;5067726;28;20245;-81
2024/04/04 01:53:26;;;;;;;1.40;0.83;;;;;;;11.60;73.73;95201.09;5089901;28;20195;-81
2024/04/04 01:55:58;;;;;;;2.67;0.63;;;;;;;11.73;73.05;95208.41;5056128;28;20189;-81
2024/04/04 01:58:23;;;;;;;1.93;0.60;;;;;;;11.50;73.74;95203.06;5081169;28;20693;-81
2024/04/04 02:00:49;;;;;;;3.37;0.80;;;;;;;11.82;73.09;95211.84;5067689;28;20225;-81
2024/04/04 02:03:15;;;;;;;2.77;0.67;;;;;;;11.80;73.47;95204.22;5064615;28;20259;-81
2024/04/04 02:05:41;;;;;;;2.70;0.77;;;;;;;11.73;74.55;95202.41;5048772;28;20181;-81
2024/04/04 02:08:06;;;;;;;2.83;0.93;;;;;;;11.65;74.78;95203.22;5082170;28;20581;-81
2024/04/04 02:10:32;;;;;;;2.77;0.50;;;;;;;11.66;74.35;95196.22;5091068;28;20221;-80
2024/04/04 02:12:58;;;;;;;1.80;0.67;;;;;;;11.44;75.26;95197.69;5070575;28;20276;-81
2024/04/04 02:15:23;;;;;;;1.03;0.63;;;;;;;11.48;75.16;95193.78;5062837;28;20723;-79
2024/04/04 02:17:49;;;;;;;4.57;0.83;;;;;;;11.24;76.01;95191.97;5083009;28;20184;-80
2024/04/04 02:20:14;;;;;;;2.37;0.60;;;;;;;11.21;76.51;95193.09;5092648;28;20188;-80
2024/04/04 02:22:39;;;;;;;2.40;1.03;;;;;;;11.22;76.90;95189.53;5050634;28;20176;-80
2024/04/04 02:25:06;;;;;;;2.27;0.57;;;;;;;11.30;76.22;95191.31;5054393;28;20189;-80
2024/04/04 02:27:33;;;;;;;2.27;0.60;;;;;;;11.09;77.92;95185.78;5049596;28;20188;-80
2024/04/04 02:29:59;;;;;;;1.90;0.70;;;;;;;11.09;78.24;95180.56;5077469;28;20329;-80
2024/04/04 02:32:25;;;;;;;3.37;0.57;;;;;;;11.30;77.48;95193.91;5060294;28;20184;-80
2024/04/04 02:34:50;;;;;;;1.30;0.67;;;;;;;11.16;78.20;95194.56;5070904;28;20176;-80
2024/04/04 02:37:15;;;;;;;0.97;0.50;;;;;;;11.17;78.20;95188.38;5072145;28;20193;-80
2024/04/04 02:39:41;;;;;;;1.03;0.60;;;;;;;11.12;79.39;95188.03;5076884;28;20215;-81
2024/04/04 02:42:06;;;;;;;2.00;0.60;;;;;;;11.00;80.45;95190.94;5045531;28;20211;-80
2024/04/04 02:44:35;;;;;;;2.83;0.90;;;;;;;11.04;81.45;95181.03;5070343;28;20212;-80
2024/04/04 02:47:00;;;;;;;1.90;0.83;;;;;;;11.01;82.66;95178.75;5053894;28;20601;-81
2024/04/04 02:49:25;;;;;;;2.63;0.70;;;;;;;10.97;84.08;95180.88;5071199;28;20201;-80
2024/04/04 02:51:51;;;;;;;4.07;0.87;;;;;;;10.81;85.12;95180.03;5062703;28;20291;-80
2024/04/04 02:54:16;;;;;;;1.67;0.73;;;;;;;10.77;86.33;95180.31;5058789;28;20210;-80
2024/04/04 02:56:41;;;;;;;3.47;0.70;;;;;;;10.87;85.36;95177.63;5048999;28;20196;-80
2024/04/04 02:59:07;;;;;;;4.67;0.70;;;;;;;10.77;86.00;95179.50;5053073;28;20227;-81
2024/04/04 03:01:33;;;;;;;3.17;1.07;;;;;;;10.72;85.70;95181.78;5067343;28;20188;-81
2024/04/04 03:03:58;;;;;;;2.47;1.00;;;;;;;10.64;87.08;95173.97;5057489;28;20235;-80
2024/04/04 03:06:24;;;;;;;2.83;0.80;;;;;;;10.87;85.67;95185.41;5063015;28;20193;-81
2024/04/04 03:08:49;;;;;;;1.13;0.97;;;;;;;10.75;86.05;95181.44;5086287;28;20201;-79
2024/04/04 03:11:14;;;;;;;2.53;1.10;;;;;;;10.69;85.76;95171.69;5072901;28;20267;-80
2024/04/04 03:13:40;;;;;;;2.20;0.87;;;;;;;10.53;87.81;95166.47;5071215;28;20205;-80
2024/04/04 03:16:05;;;;;;;2.37;0.60;;;;;;;10.74;86.59;95164.25;5069011;28;20181;-80
2024/04/04 03:18:31;;;;;;;1.67;0.60;;;;;;;10.67;87.04;95171.03;5067793;28;20615;-80
2024/04/04 03:20:56;;;;;;;1.67;0.63;;;;;;;10.52;87.65;95164.84;5074416;28;20198;-80
2024/04/04 03:23:21;;;;;;;3.30;0.50;;;;;;;10.65;87.33;95170.38;5053235;28;20626;-80
2024/04/04 03:25:47;;;;;;;4.07;0.97;;;;;;;10.61;87.62;95169.09;5065949;28;20792;-80
2024/04/04 03:28:12;;;;;;;3.53;0.73;;;;;;;10.56;87.29;95168.72;5056496;28;20699;-80
2024/04/04 03:30:38;;;;;;;0.93;0.60;;;;;;;10.55;87.34;95167.91;5065423;28;20220;-81
2024/04/04 03:33:04;;;;;;;2.90;0.83;;;;;;;10.48;88.22;95175.50;5050291;28;20258;-82
2024/04/04 03:35:29;;;;;;;1.33;0.80;;;;;;;10.45;87.99;95183.63;5088949;28;20180;-78
2024/04/04 03:37:54;;;;;;;5.20;0.70;;;;;;;10.39;89.28;95176.44;5077489;28;20196;-80
2024/04/04 03:40:20;;;;;;;1.33;0.70;;;;;;;10.45;88.63;95185.41;5063644;28;20919;-81
2024/04/04 03:42:46;;;;;;;1.67;0.70;;;;;;;10.36;88.89;95175.94;5044764;28;20204;-81
2024/04/04 03:45:11;;;;;;;1.63;0.60;;;;;;;10.51;87.82;95184.75;5059863;28;20199;-81
2024/04/04 03:47:36;;;;;;;1.13;0.70;;;;;;;10.55;86.80;95180.09;5069447;28;20230;-81
2024/04/04 03:50:02;;;;;;;2.97;0.90;;;;;;;10.28;88.48;95176.72;5074640;28;20330;-80
2024/04/04 03:52:28;;;;;;;1.13;0.60;;;;;;;10.25;89.15;95176.19;5076837;28;20243;-81
2024/04/04 03:54:54;;;;;;;2.87;0.73;;;;;;;10.24;89.29;95179.75;5082912;28;20813;-81
2024/04/04 03:57:19;;;;;;;4.23;1.20;;;;;;;10.36;88.40;95171.56;5060348;28;20193;-81
2024/04/04 03:59:45;;;;;;;3.93;0.97;;;;;;;10.26;89.79;95162.28;5069217;28;20208;-81
2024/04/04 04:02:10;;;;;;;2.47;1.07;;;;;;;10.30;89.16;95168.78;5055142;28;20310;-81
2024/04/04 04:04:35;;;;;;;2.00;0.80;;;;;;;10.18;90.01;95152.63;5051471;28;20246;-80
2024/04/04 04:07:01;;;;;;;4.63;2.30;;;;;;;10.21;89.02;95160.09;5048399;28;20275;-80
2024/04/04 04:09:26;;;;;;;1.57;0.80;;;;;;;10.24;89.08;95161.59;5051013;28;20565;-80
2024/04/04 04:11:51;;;;;;;3.53;1.00;;;;;;;10.25;88.61;95164.06;5056025;28;20193;-80
2024/04/04 04:14:17;;;;;;;1.07;0.57;;;;;;;10.22;88.96;95153.97;5069991;28;20184;-80
2024/04/04 04:16:43;;;;;;;2.83;0.80;;;;;;;10.29;88.16;95155.00;5064928;28;20193;-80
2024/04/04 04:19:08;;;;;;;3.77;1.00;;;;;;;10.43;86.93;95154.41;5071002;28;20219;-81
2024/04/04 04:21:33;;;;;;;4.63;0.87;;;;;;;10.34;87.18;95147.56;5067491;28;20226;-80
2024/04/04 04:24:00;;;;;;;4.87;0.93;;;;;;;10.13;87.86;95162.66;5070523;28;21171;-81
2024/04/04 04:26:26;;;;;;;3.70;0.83;;;;;;;10.13;88.28;95160.88;5066378;28;20181;-80
2024/04/04 04:28:51;;;;;;;3.67;0.93;;;;;;;10.23;87.47;95160.78;5090151;28;20227;-79
2024/04/04 04:31:28;;;;;;;3.70;0.87;;;;;;;10.19;87.33;95167.25;5074069;28;20207;-80
2024/04/04 04:33:54;;;;;;;2.80;1.00;;;;;;;10.23;86.95;95165.16;5058805;28;20192;-80
2024/04/04 04:36:22;;;;;;;2.43;0.90;;;;;;;10.32;86.06;95166.84;5071907;28;20203;-80
2024/04/04 04:38:47;;;;;;;2.90;1.00;;;;;;;10.36;85.81;95171.56;5075599;28;20233;-80
2024/04/04 04:41:13;;;;;;;4.47;0.90;;;;;;;10.31;85.39;95163.44;5086685;28;20241;-80
2024/04/04 04:43:38;;;;;;;3.67;1.30;;;;;;;10.36;85.12;95166.38;5068034;28;20631;-80
2024/04/04 04:46:05;;;;;;;2.13;1.07;;;;;;;10.24;85.61;95166.78;5060965;28;20192;-81
2024/04/04 04:48:30;;;;;;;3.80;0.83;;;;;;;10.25;85.62;95163.22;5070907;28;20205;-80
2024/04/04 04:50:56;;;;;;;4.23;1.13;;;;;;;10.41;84.35;95160.72;5083939;28;20626;-79
2024/04/04 04:53:21;;;;;;;3.93;0.90;;;;;;;10.42;84.13;95154.53;5082232;28;20200;-80
2024/04/04 04:55:47;;;;;;;4.30;1.37;;;;;;;10.40;84.08;95167.69;5064579;28;20181;-80
2024/04/04 04:58:13;;;;;;;1.77;0.90;;;;;;;10.62;83.21;95160.31;5079639;28;20744;-79
2024/04/04 05:00:38;;;;;;;4.20;1.20;;;;;;;10.55;83.12;95170.50;5070029;28;20185;-80
2024/04/04 05:03:04;;;;;;;4.83;1.00;;;;;;;10.76;82.14;95151.91;5073337;28;20230;-80
2024/04/04 05:05:30;;;;;;;2.70;0.90;;;;;;;10.73;81.99;95163.44;5071093;28;20577;-79
2024/04/04 05:07:55;;;;;;;1.70;0.80;;;;;;;10.95;81.30;95156.00;5067375;28;20196;-80
2024/04/04 05:10:21;;;;;;;3.83;0.90;;;;;;;10.81;81.75;95159.25;5076187;28;20183;-80
2024/04/04 05:12:46;;;;;;;6.40;0.80;;;;;;;10.76;81.92;95159.69;5072505;28;20246;-80
2024/04/04 05:15:12;;;;;;;3.27;0.90;;;;;;;10.86;81.89;95147.38;5058127;28;20270;-79
2024/04/04 05:17:37;;;;;;;1.83;1.10;;;;;;;11.01;80.66;95151.00;5051124;28;20177;-80
2024/04/04 05:20:04;;;;;;;7.07;1.23;;;;;;;10.81;81.81;95148.84;5059011;28;20298;-79
2024/04/04 05:22:29;;;;;;;4.60;0.93;;;;;;;10.82;81.92;95153.88;5091918;28;20181;-81
2024/04/04 05:24:56;;;;;;;2.63;0.90;;;;;;;10.92;80.78;95151.16;5060659;28;20247;-81
2024/04/04 05:27:22;;;;;;;2.60;0.80;;;;;;;11.28;80.05;95156.88;5072162;28;20816;-80
2024/04/04 05:29:47;;;;;;;7.47;1.40;;;;;;;11.38;79.56;95154.13;5075968;28;20816;-79
2024/04/04 05:32:12;;;;;;;5.10;1.17;;;;;;;11.39;79.98;95151.34;5082277;28;20188;-80
2024/04/04 05:34:40;;;;;;;2.27;1.00;;;;;;;11.54;79.61;95147.13;5090993;28;20185;-79
2024/04/04 05:37:05;;;;;;;3.43;1.13;;;;;;;11.35;80.20;95153.47;5057614;28;20248;-79
2024/04/04 05:39:30;;;;;;;5.67;1.47;;;;;;;11.48;79.80;95152.97;5074426;28;20300;-79
2024/04/04 05:41:56;;;;;;;9.10;1.20;;;;;;;11.32;80.65;95155.59;5082686;28;20193;-79
2024/04/04 05:44:21;;;;;;;2.13;1.03;;;;;;;11.48;80.16;95152.16;5053732;28;20215;-79
2024/04/04 05:46:47;;;;;;;3.73;1.10;;;;;;;11.47;80.12;95150.53;5093453;28;20191;-79
2024/04/04 05:49:13;;;;;;;6.10;1.10;;;;;;;11.81;79.34;95148.63;5092032;28;20323;-79
2024/04/04 05:51:39;;;;;;;5.83;1.30;;;;;;;11.73;79.35;95145.97;5078721;28;20677;-79
2024/04/04 05:54:04;;;;;;;5.87;1.20;;;;;;;11.49;79.96;95153.81;5073443;28;20189;-79
2024/04/04 05:56:30;;;;;;;5.10;1.30;;;;;;;11.56;80.13;95146.97;5066363;28;20188;-79
2024/04/04 05:58:55;;;;;;;1.73;0.90;;;;;;;11.34;80.61;95149.25;5055593;28;20220;-78
2024/04/04 06:01:20;;;;;;;3.50;1.37;;;;;;;11.39;79.91;95156.56;5067630;28;20189;-79
2024/04/04 06:03:46;;;;;;;5.20;1.17;;;;;;;11.25;80.53;95160.63;5056510;28;20731;-79
2024/04/04 06:06:11;;;;;;;7.67;1.43;;;;;;;11.37;80.51;95150.72;5069862;28;20199;-79
2024/04/04 06:08:38;;;;;;;9.43;1.80;;;;;;;11.57;79.51;95156.41;5067741;28;20686;-79
2024/04/04 06:11:03;;;;;;;3.07;1.20;;;;;;;11.44;79.87;95163.88;5075618;28;20232;-79
2024/04/04 06:13:29;;;;;;;9.40;1.40;;;;;;;11.40;80.43;95160.81;5071787;28;20642;-79
2024/04/04 06:15:55;;;;;;;6.40;1.17;;;;;;;11.72;79.26;95159.16;5053087;28;20193;-79
2024/04/04 06:18:20;;;;;;;5.43;1.20;;;;;;;11.64;79.10;95155.59;5062285;28;20234;-80
2024/04/04 06:20:46;;;;;;;4.87;1.73;;;;;;;11.68;79.42;95155.28;5062773;28;20181;-78
2024/04/04 06:23:11;;;;;;;4.23;1.53;;;;;;;11.52;79.42;95156.91;5089464;28;20183;-79
2024/04/04 06:25:37;;;;;;;6.13;1.70;;;;;;;11.74;78.90;95158.00;5086619;28;20186;-79
2024/04/04 06:28:02;;;;;;;5.17;1.40;;;;;;;11.60;79.94;95158.69;5048577;28;20216;-79
2024/04/04 06:30:28;;;;;;;4.80;1.40;;;;;;;11.51;80.46;95167.47;5087890;28;20200;-79
2024/04/04 06:32:53;;;;;;;6.77;1.30;;;;;;;11.95;79.64;95159.34;5067165;28;20181;-79
2024/04/04 06:35:18;;;;;;;8.90;1.93;;;;;;;12.14;78.25;95149.38;5076037;28;20660;-79
2024/04/04 06:37:47;;;;;;;5.07;1.70;;;;;;;12.12;77.70;95159.16;5073360;28;20344;-79
2024/04/04 06:40:13;;;;;;;5.67;1.50;;;;;;;12.45;77.22;95170.25;5072558;28;20743;-80
2024/04/04 06:42:39;;;;;;;6.03;1.40;;;;;;;12.59;76.81;95165.34;5063044;28;20181;-80
2024/04/04 06:45:05;;;;;;;10.17;1.93;;;;;;;12.60;76.69;95169.56;5054566;28;20200;-79
2024/04/04 06:47:30;;;;;;;9.87;2.10;;;;;;;12.72;76.44;95168.19;5089416;28;20180;-79
2024/04/04 06:49:56;;;;;;;7.00;1.73;;;;;;;13.03;75.12;95174.25;5054902;28;20273;-79
2024/04/04 06:52:21;;;;;;;5.53;1.50;;;;;;;12.85;75.87;95170.28;5075346;28;20191;-79
2024/04/04 06:54:47;;;;;;;5.83;1.90;;;;;;;12.96;75.05;95172.47;5059218;28;20192;-79
2024/04/04 06:57:12;;;;;;;7.63;1.63;;;;;;;12.85;75.57;95173.69;5088269;28;20202;-79
2024/04/04 06:59:37;;;;;;;4.20;1.63;;;;;;;12.76;75.35;95172.91;5071964;28;20213;-79
2024/04/04 07:02:03;;;;;;;7.60;1.57;;;;;;;12.77;76.72;95168.50;5051428;28;20616;-80
2024/04/04 07:04:28;;;;;;;7.30;1.70;;;;;;;12.54;77.55;95173.63;5057799;28;20635;-79
2024/04/04 07:06:53;;;;;;;4.77;1.30;;;;;;;12.97;77.02;95171.50;5050587;28;20246;-80
2024/04/04 07:09:19;;;;;;;5.70;1.80;;;;;;;12.68;78.48;95172.94;5063944;28;20192;-79
2024/04/04 07:11:44;;;;;;;8.90;2.10;;;;;;;12.79;78.72;95174.34;5071306;28;20180;-79
2024/04/04 07:14:11;;;;;;;10.87;2.57;;;;;;;12.26;81.28;95178.44;5091060;28;20179;-85
2024/04/04 07:16:36;;;;;;;9.77;2.30;;;;;;;12.18;82.92;95187.09;5056410;28;20248;-80
2024/04/04 07:19:02;;;;;;;8.07;2.33;;;;;;;12.11;84.03;95180.94;5078287;28;20242;-79
2024/04/04 07:21:27;;;;;;;8.23;2.20;;;;;;;12.01;85.75;95185.50;5115920;28;20195;-80
2024/04/04 07:23:52;;;;;;;5.30;2.03;;;;;;;11.67;87.37;95180.47;5097912;28;20177;-80
2024/04/04 07:26:18;;;;;;;12.67;2.30;;;;;;;11.48;89.73;95180.78;5074065;28;20222;-80
2024/04/04 07:28:43;;;;;;;6.83;1.80;;;;;;;11.51;89.19;95186.47;5081654;28;20222;-79
2024/04/04 07:31:08;;;;;;;10.80;2.83;;;;;;;11.64;89.25;95168.59;5096567;28;20188;-80
2024/04/04 07:33:34;;;;;;;7.30;1.90;;;;;;;11.73;88.75;95182.41;5076348;28;20200;-79
2024/04/04 07:35:59;;;;;;;6.50;2.00;;;;;;;11.64;88.99;95185.97;5093513;28;20181;-80
2024/04/04 07:38:24;;;;;;;9.77;2.60;;;;;;;11.75;89.36;95187.44;5080260;28;20205;-78
2024/04/04 07:40:50;;;;;;;7.57;2.03;;;;;;;11.74;88.85;95178.00;5091141;28;20203;-77
2024/04/04 07:43:18;;;;;;;8.70;2.37;;;;;;;11.58;90.03;95192.66;5111540;28;20214;-79
2024/04/04 07:45:43;;;;;;;7.70;2.00;;;;;;;11.70;89.42;95193.16;5091277;28;20189;-80
2024/04/04 07:48:10;;;;;;;5.13;1.83;;;;;;;12.07;88.04;95190.03;5089422;28;20210;-80
2024/04/04 07:50:37;;;;;;;10.23;2.00;;;;;;;11.76;89.53;95202.91;5093867;28;20212;-79
2024/04/04 07:53:03;;;;;;;12.10;2.30;;;;;;;11.61;89.63;95207.13;5082746;28;20264;-79
2024/04/04 07:55:29;;;;;;;5.63;1.80;;;;;;;12.02;88.70;95199.34;5095367;28;20265;-80
2024/04/04 07:57:54;;;;;;;10.70;2.63;;;;;;;12.05;88.10;95201.59;5084162;28;20189;-80
2024/04/04 08:00:21;;;;;;;8.10;2.90;;;;;;;11.94;87.66;95209.75;5091210;28;20242;-80
2024/04/04 08:02:47;;;;;;;8.47;2.20;;;;;;;11.62;88.81;95208.75;5059997;28;20253;-80
2024/04/04 08:05:12;;;;;;;4.90;2.30;;;;;;;12.26;86.79;95212.28;5075492;28;20200;-79
2024/04/04 08:07:38;;;;;;;8.40;2.50;;;;;;;12.33;86.57;95207.25;5083494;28;20192;-79
2024/04/04 08:10:08;;;;;;;9.20;3.10;;;;;;;11.94;86.66;95222.78;5054446;28;20288;-79
2024/04/04 08:12:35;;;;;;;8.70;2.50;;;;;;;12.19;86.56;95209.56;5059933;28;20654;-79
2024/04/04 08:15:03;;;;;;;10.23;3.30;;;;;;;12.21;86.73;95222.41;5063402;28;20658;-79
2024/04/04 08:17:32;;;;;;;7.70;2.87;;;;;;;11.82;87.40;95237.88;5051646;28;20193;-79
2024/04/04 08:20:01;;;;;;;8.93;2.77;;;;;;;11.69;88.65;95225.34;5066298;28;20217;-79
2024/04/04 08:22:27;;;;;;;13.10;3.23;;;;;;;11.90;86.70;95235.28;5079243;28;20195;-79
2024/04/04 08:24:52;;;;;;;11.50;3.87;;;;;;;11.75;87.45;95236.88;5070194;28;20263;-80
2024/04/04 08:27:21;;;;;;;8.13;3.00;;;;;;;11.83;88.04;95245.50;5066133;28;20674;-80
2024/04/04 08:29:47;;;;;;;9.77;3.00;;;;;;;11.82;87.82;95245.69;5070330;28;20287;-81
2024/04/04 08:32:13;;;;;;;10.60;3.40;;;;;;;12.18;86.91;95244.34;5071468;28;20179;-80
2024/04/04 08:34:39;;;;;;;8.50;2.40;;;;;;;12.04;86.79;95246.84;5067922;28;20204;-81
2024/04/04 08:37:05;;;;;;;5.43;2.50;;;;;;;11.94;87.57;95241.78;5053099;28;20668;-80
2024/04/04 08:39:30;;;;;;;8.27;2.80;;;;;;;11.90;87.75;95251.69;5058272;28;20224;-80
2024/04/04 08:41:55;;;;;;;10.03;2.20;;;;;;;11.85;87.59;95240.97;5069819;28;20188;-80
2024/04/04 08:44:21;;;;;;;9.40;1.80;;;;;;;11.67;88.54;95242.91;5047313;28;20196;-80
2024/04/04 08:46:47;;;;;;;8.60;1.90;;;;;;;11.85;87.93;95248.78;5059643;28;20245;-80
2024/04/04 08:49:14;;;;;;;7.73;2.13;;;;;;;12.16;87.31;95238.50;5063966;28;20196;-80
2024/04/04 08:51:39;;;;;;;8.17;2.33;;;;;;;12.03;88.18;95255.63;5067339;28;20185;-81
2024/04/04 08:54:04;;;;;;;7.97;2.30;;;;;;;12.07;87.36;95254.31;5045548;28;20192;-81
2024/04/04 08:56:30;;;;;;;9.93;2.13;;;;;;;11.69;89.33;95250.53;5062986;28;20193;-81
2024/04/04 08:58:56;;;;;;;9.37;2.27;;;;;;;11.77;89.20;95253.97;5054094;28;20209;-80
2024/04/04 09:01:21;;;;;;;9.83;2.50;;;;;;;11.97;89.09;95257.06;5086703;28;20189;-81
2024/04/04 09:03:47;;;;;;;9.80;3.40;;;;;;;11.89;89.82;95259.69;5085613;28;20689;-81
2024/04/04 09:06:17;;;;;;;14.20;6.03;;;;;;;11.98;90.52;95263.91;5074623;28;20275;-80
2024/04/04 09:08:42;;;;;;;7.53;3.43;;;;;;;12.08;89.90;95264.53;5063293;28;20252;-81
2024/04/04 09:11:08;;;;;;;10.50;3.40;;;;;;;12.02;90.12;95257.41;5073437;28;20231;-81
2024/04/04 09:13:34;;;;;;;8.33;3.10;;;;;;;12.29;89.50;95263.25;5069450;28;20188;-79
2024/04/04 09:16:00;;;;;;;5.87;1.93;;;;;;;11.96;90.52;95271.06;5053520;28;20268;-80
2024/04/04 09:18:26;;;;;;;8.70;2.63;;;;;;;12.22;90.10;95257.88;5045782;28;20235;-80
2024/04/04 09:20:51;;;;;;;7.53;2.60;;;;;;;12.29;88.62;95258.03;5092227;28;20209;-79
2024/04/04 09:23:17;;;;;;;8.47;2.13;;;;;;;12.35;88.92;95265.16;5062693;28;20180;-80
2024/04/04 09:25:42;;;;;;;6.20;2.20;;;;;;;12.40;89.07;95258.50;5057387;28;20606;-82
2024/04/04 09:28:08;;;;;;;11.67;3.63;;;;;;;12.80;88.16;95266.38;5087705;28;20196;-81
2024/04/04 09:30:35;;;;;;;6.47;2.97;;;;;;;12.64;88.08;95264.63;5078931;28;20181;-81
2024/04/04 09:33:01;;;;;;;9.13;3.43;;;;;;;12.77;88.26;95254.50;5054967;28;20707;-80
2024/04/04 09:35:27;;;;;;;8.97;2.60;;;;;;;12.80;88.28;95254.16;5055810;28;20200;-80
2024/04/04 09:37:53;;;;;;;9.13;2.60;;;;;;;12.67;88.57;95256.47;5056222;28;20299;-80
2024/04/04 09:40:18;;;;;;;8.47;2.17;;;;;;;12.72;88.58;95260.22;5064534;28;20211;-79
2024/04/04 09:42:45;;;;;;;6.83;2.23;;;;;;;12.65;88.89;95255.84;5066061;28;20570;-80
2024/04/04 09:45:14;;;;;;;4.50;2.20;;;;;;;12.47;88.59;95262.06;5083226;28;20223;-80
2024/04/04 09:47:42;;;;;;;10.87;2.20;;;;;;;12.69;89.13;95260.53;5090987;28;20188;-81
2024/04/04 09:50:09;;;;;;;7.97;1.90;;;;;;;12.68;89.48;95268.53;5092815;28;20204;-80
2024/04/04 09:52:34;;;;;;;10.07;2.17;;;;;;;12.66;89.87;95267.88;5079800;28;20185;-80
2024/04/04 09:55:00;;;;;;;6.47;2.07;;;;;;;12.50;89.83;95268.72;5071416;28;20218;-80
2024/04/04 09:57:25;;;;;;;7.13;2.07;;;;;;;12.67;89.95;95272.94;5066258;28;20560;-80
2024/04/04 10:00:19;;;;;;;8.20;2.30;;;;;;;12.88;87.95;95271.56;5078850;28;20299;-80
2024/04/04 10:02:44;;;;;;;7.53;2.53;;;;;;;12.80;89.07;95276.78;5093178;28;20188;-80
2024/04/04 10:05:18;;;;;;;5.07;1.50;;;;;;;12.50;90.10;95276.53;5105272;28;20210;-80
2024/04/04 10:07:44;;;;;;;7.37;2.20;;;;;;;12.76;89.40;95277.13;5100086;28;20185;-80
2024/04/04 10:10:14;;;;;;;8.70;2.33;;;;;;;12.77;89.04;95278.75;5089792;28;20212;-81
2024/04/04 10:12:43;;;;;;;8.60;2.00;;;;;;;12.75;90.17;95272.91;5075502;28;20226;-81
2024/04/04 10:15:09;;;;;;;8.63;2.13;;;;;;;12.97;89.17;95271.34;5059262;28;20187;-81
2024/04/04 10:17:40;;;;;;;6.33;1.90;;;;;;;12.97;89.32;95267.94;5048781;28;20226;-81
2024/04/04 10:20:07;;;;;;;8.13;2.57;;;;;;;13.10;90.00;95260.41;5065454;28;20227;-81
2024/04/04 10:22:33;;;;;;;9.37;3.60;;;;;;;13.61;88.39;95271.25;5056351;28;20185;-81
2024/04/04 10:25:04;;;;;;;7.83;2.37;;;;;;;13.54;87.54;95259.88;5056017;28;20235;-81
2024/04/04 10:27:29;;;;;;;7.27;2.20;;;;;;;13.21;86.59;95262.66;5072651;28;20193;-80
2024/04/04 10:29:55;;;;;;;6.63;1.87;;;;;;;13.85;85.97;95268.44;5072278;28;20213;-80
2024/04/04 10:32:20;;;;;;;4.73;1.50;;;;;;;13.33;85.87;95268.28;5077926;28;20657;-80
2024/04/04 10:34:46;;;;;;;4.63;1.40;;;;;;;13.22;85.09;95263.47;5072535;28;20595;-80
2024/04/04 10:37:14;;;;;;;6.77;1.70;;;;;;;13.45;85.71;95261.72;5056577;28;20650;-81
2024/04/04 10:39:40;;;;;;;9.03;1.80;;;;;;;13.52;85.91;95254.84;5095275;28;20212;-81
2024/04/04 10:42:06;;;;;;;5.20;1.77;;;;;;;13.72;84.88;95239.53;5056883;28;20648;-81
2024/04/04 10:44:32;;;;;;;5.00;1.27;;;;;;;13.14;86.05;95248.63;5074776;28;20196;-81
2024/04/04 10:46:57;;;;;;;4.43;1.77;;;;;;;13.19;85.93;95248.97;5058930;28;20693;-81
2024/04/04 10:49:26;;;;;;;6.80;1.90;;;;;;;13.31;85.51;95252.81;5079759;28;20203;-80
2024/04/04 10:51:54;;;;;;;7.43;2.20;;;;;;;13.11;86.75;95246.38;5059545;28;20564;-79
2024/04/04 10:54:20;;;;;;;5.67;1.33;;;;;;;13.10;85.87;95242.16;5058117;28;20195;-81
2024/04/04 10:56:47;;;;;;;5.97;1.70;;;;;;;13.01;85.82;95243.16;5083469;28;20188;-80
2024/04/04 10:59:15;;;;;;;5.57;1.73;;;;;;;12.69;86.04;95241.50;5057143;28;20219;-81
2024/04/04 11:01:41;;;;;;;7.43;1.73;;;;;;;12.86;84.01;95245.66;5054687;28;20189;-80
2024/04/04 11:04:10;;;;;;;7.73;1.40;;;;;;;12.83;85.14;95240.81;5057758;28;20191;-80
2024/04/04 11:06:35;;;;;;;6.60;1.97;;;;;;;12.52;85.52;95245.94;5065411;28;20196;-81
2024/04/04 11:09:04;;;;;;;9.63;3.83;;;;;;;12.99;82.91;95237.31;5087442;28;20606;-81
2024/04/04 11:11:29;;;;;;;5.60;1.50;;;;;;;12.89;84.10;95231.47;5073431;28;20205;-80
2024/04/04 11:13:55;;;;;;;2.50;1.17;;;;;;;12.72;83.37;95241.97;5074221;28;20279;-80
2024/04/04 11:16:20;;;;;;;2.70;1.10;;;;;;;12.62;83.11;95243.94;5090860;28;20238;-81
2024/04/04 11:18:46;;;;;;;3.67;1.00;;;;;;;12.97;82.56;95241.88;5081633;28;20204;-79
2024/04/04 11:21:11;;;;;;;2.90;1.20;;;;;;;12.67;84.49;95249.47;5097459;28;20259;-80
2024/04/04 11:23:37;;;;;;;2.53;1.13;;;;;;;13.03;82.38;95249.84;5070726;28;20212;-81
2024/04/04 11:26:02;;;;;;;4.90;1.43;;;;;;;12.78;82.60;95235.28;5084603;28;20227;-82
2024/04/04 11:28:28;;;;;;;3.60;1.30;;;;;;;12.87;82.47;95255.09;5047916;28;20209;-82